createdAt,value
2023-02-13T00:00:16.842Z,27.05
2023-02-13T00:02:43.603Z,32.35
2023-02-13T00:05:10.238Z,29.70
2023-02-13T00:07:36.794Z,29.90
2023-02-13T00:10:03.886Z,31.23
2023-02-13T00:12:30.494Z,30.83
2023-02-13T00:14:57.079Z,33.92
2023-02-13T00:17:24.572Z,34.33
2023-02-13T00:19:52.016Z,30.50
2023-02-13T00:22:18.628Z,33.88
2023-02-13T00:24:45.361Z,28.15
2023-02-13T00:27:11.961Z,32.60
2023-02-13T00:29:38.607Z,32.50
2023-02-13T00:32:05.580Z,33.25
2023-02-13T00:34:32.988Z,35.85
2023-02-13T00:37:03.105Z,32.55
2023-02-13T00:39:29.842Z,34.10
2023-02-13T00:41:56.481Z,33.00
2023-02-13T00:44:23.129Z,31.55
2023-02-13T00:46:49.848Z,33.70
2023-02-13T00:49:16.931Z,38.90
2023-02-13T00:51:43.547Z,31.17
2023-02-13T00:54:10.148Z,32.53
2023-02-13T00:56:36.832Z,36.72
2023-02-13T00:59:03.536Z,40.70
2023-02-13T01:01:30.274Z,42.47
2023-02-13T01:03:58.403Z,38.72
2023-02-13T01:06:25.121Z,35.95
2023-02-13T01:08:52.121Z,36.92
2023-02-13T01:11:19.323Z,35.25
2023-02-13T01:13:46.514Z,35.80
2023-02-13T01:16:15.885Z,33.47
2023-02-13T01:18:42.600Z,33.92
2023-02-13T01:21:16.733Z,33.97
2023-02-13T01:23:43.667Z,36.70
2023-02-13T01:26:30.348Z,36.80
2023-02-13T01:28:58.060Z,32.33
2023-02-13T01:31:25.227Z,36.72
2023-02-13T01:33:51.928Z,37.97
2023-02-13T01:36:21.664Z,37.13
2023-02-13T01:38:48.497Z,44.15
2023-02-13T01:41:15.603Z,35.60
2023-02-13T01:43:52.969Z,42.17
2023-02-13T01:46:28.611Z,42.95
2023-02-13T01:49:00.921Z,42.55
2023-02-13T01:51:33.142Z,45.50
2023-02-13T01:54:04.378Z,43.08
2023-02-13T01:56:37.568Z,50.65
2023-02-13T01:59:11.914Z,53.38
2023-02-13T02:01:38.704Z,47.67
2023-02-13T02:04:11.115Z,54.63
2023-02-13T02:06:43.127Z,57.30
2023-02-13T02:09:16.776Z,49.83
2023-02-13T02:11:54.984Z,45.45
2023-02-13T02:14:23.935Z,56.88
2023-02-13T02:16:50.513Z,54.08
2023-02-13T02:19:44.763Z,73.15
2023-02-13T02:22:49.011Z,57.65
2023-02-13T02:26:13.788Z,57.45
2023-02-13T02:29:17.727Z,52.22
2023-02-13T02:32:33.249Z,56.30
2023-02-13T02:35:13.405Z,61.85
2023-02-13T02:37:52.629Z,64.47
2023-02-13T02:40:34.719Z,56.92
2023-02-13T02:43:14.004Z,66.85
2023-02-13T02:46:00.118Z,68.32
2023-02-13T02:49:21.086Z,61.88
2023-02-13T02:52:06.695Z,66.03
2023-02-13T02:55:07.327Z,58.53
2023-02-13T02:58:09.522Z,63.33
2023-02-13T03:01:00.241Z,54.15
2023-02-13T03:06:19.785Z,59.15
2023-02-13T03:09:14.930Z,70.32
2023-02-13T03:12:01.516Z,64.78
2023-02-13T03:14:28.670Z,66.93
2023-02-13T03:17:16.392Z,61.10
2023-02-13T03:20:21.138Z,55.10
2023-02-13T03:23:02.935Z,54.95
2023-02-13T03:25:36.992Z,63.88
2023-02-13T03:28:22.309Z,57.05
2023-02-13T03:30:51.894Z,55.15
2023-02-13T03:33:29.350Z,53.47
2023-02-13T03:36:47.105Z,45.63
2023-02-13T03:39:44.187Z,58.08
2023-02-13T03:42:37.848Z,51.92
2023-02-13T03:45:41.224Z,49.67
2023-02-13T03:48:29.698Z,48.70
2023-02-13T03:50:59.031Z,55.70
2023-02-13T03:53:28.869Z,51.58
2023-02-13T03:56:17.695Z,52.17
2023-02-13T03:59:08.970Z,44.20
2023-02-13T04:01:37.334Z,42.25
2023-02-13T04:04:21.336Z,38.00
2023-02-13T04:06:57.859Z,45.47
2023-02-13T04:09:27.377Z,43.35
2023-02-13T04:12:02.473Z,44.65
2023-02-13T04:14:41.477Z,41.60
2023-02-13T04:17:21.807Z,45.45
2023-02-13T04:19:48.636Z,38.42
2023-02-13T04:22:15.655Z,38.42
2023-02-13T04:24:42.363Z,38.28
2023-02-13T04:27:13.081Z,34.72
2023-02-13T04:32:06.202Z,31.23
2023-02-13T04:34:32.793Z,32.70
2023-02-13T04:36:59.373Z,31.13
2023-02-13T04:39:26.034Z,31.58
2023-02-13T04:41:52.637Z,29.67
2023-02-13T04:44:19.247Z,32.65
2023-02-13T04:46:45.786Z,29.45
2023-02-13T04:49:12.461Z,33.05
2023-02-13T04:51:39.213Z,28.92
2023-02-13T04:54:05.848Z,27.33
2023-02-13T04:56:32.457Z,26.35
2023-02-13T04:58:59.032Z,24.38
2023-02-13T05:01:25.680Z,25.05
2023-02-13T05:03:52.303Z,20.90
2023-02-13T05:06:18.959Z,24.42
2023-02-13T05:08:45.550Z,23.23
2023-02-13T05:11:12.162Z,21.05
2023-02-13T05:13:38.749Z,23.48
2023-02-13T05:16:05.747Z,20.33
2023-02-13T05:18:32.335Z,21.50
2023-02-13T05:21:17.237Z,17.05
2023-02-13T05:23:43.826Z,16.75
2023-02-13T05:26:10.367Z,18.60
2023-02-13T05:28:55.504Z,16.85
2023-02-13T05:31:22.297Z,15.50
2023-02-13T05:33:49.000Z,15.82
2023-02-13T05:36:15.531Z,18.38
2023-02-13T05:38:42.187Z,16.88
2023-02-13T05:41:08.773Z,17.25
2023-02-13T05:43:35.371Z,16.60
2023-02-13T05:46:09.882Z,18.10
2023-02-13T05:48:37.212Z,18.73
2023-02-13T05:51:04.285Z,18.77
2023-02-13T05:53:31.070Z,16.70
2023-02-13T05:55:57.648Z,17.40
2023-02-13T05:58:24.176Z,21.52
2023-02-13T06:00:50.801Z,21.00
2023-02-13T06:03:17.361Z,18.40
2023-02-13T06:05:43.999Z,20.05
2023-02-13T06:08:10.616Z,17.13
2023-02-13T06:10:37.247Z,19.70
2023-02-13T06:13:03.939Z,21.25
2023-02-13T06:15:30.599Z,21.77
2023-02-13T06:17:58.573Z,22.77
2023-02-13T06:20:25.216Z,20.48
2023-02-13T06:22:52.002Z,25.15
2023-02-13T06:25:19.277Z,30.83
2023-02-13T06:27:47.582Z,22.25
2023-02-13T06:30:15.335Z,24.73
2023-02-13T06:32:41.981Z,28.15
2023-02-13T06:35:09.395Z,23.73
2023-02-13T06:37:36.076Z,25.90
2023-02-13T06:40:02.726Z,27.65
2023-02-13T06:42:29.346Z,24.75
2023-02-13T06:44:55.914Z,25.77
2023-02-13T06:47:22.484Z,26.33
2023-02-13T06:49:49.057Z,25.63
2023-02-13T06:52:15.674Z,26.48
2023-02-13T06:54:47.625Z,30.08
2023-02-13T06:57:15.703Z,27.75
2023-02-13T06:59:42.730Z,28.33
2023-02-13T07:02:11.019Z,28.42
2023-02-13T07:04:37.752Z,32.03
2023-02-13T07:07:04.722Z,31.10
2023-02-13T07:09:32.458Z,31.65
2023-02-13T07:11:59.181Z,34.85
2023-02-13T07:14:25.992Z,29.73
2023-02-13T07:16:52.546Z,32.83
2023-02-13T07:19:19.148Z,30.05
2023-02-13T07:21:45.894Z,31.00
2023-02-13T07:24:12.437Z,34.10
2023-02-13T07:26:39.068Z,32.35
2023-02-13T07:29:11.645Z,32.35
2023-02-13T07:31:39.401Z,36.15
2023-02-13T07:34:06.085Z,37.75
2023-02-13T07:36:32.832Z,38.20
2023-02-13T07:38:59.402Z,40.03
2023-02-13T07:41:26.861Z,42.17
2023-02-13T07:43:54.560Z,36.60
2023-02-13T07:46:21.431Z,40.08
2023-02-13T07:48:48.108Z,40.20
2023-02-13T07:51:14.757Z,42.75
2023-02-13T07:53:41.414Z,43.13
2023-02-13T07:56:09.511Z,38.60
2023-02-13T07:58:37.102Z,38.63
2023-02-13T08:01:11.367Z,43.40
2023-02-13T08:03:38.730Z,35.75
2023-02-13T08:06:06.677Z,33.00
2023-02-13T08:08:33.512Z,29.52
2023-02-13T08:11:25.164Z,34.83
2023-02-13T08:13:52.097Z,31.27
2023-02-13T08:16:18.786Z,35.22
2023-02-13T08:18:45.384Z,33.42
2023-02-13T08:21:12.046Z,27.17
2023-02-13T08:23:38.663Z,31.60
2023-02-13T08:26:05.300Z,33.63
2023-02-13T08:28:31.965Z,33.72
2023-02-13T08:30:58.708Z,30.65
2023-02-13T08:33:25.359Z,34.85
2023-02-13T08:35:51.965Z,29.40
2023-02-13T08:38:18.569Z,32.08
2023-02-13T08:40:45.194Z,32.85
2023-02-13T08:43:11.839Z,26.60
2023-02-13T08:45:38.527Z,27.67
2023-02-13T08:48:05.206Z,32.15
2023-02-13T08:50:31.979Z,25.02
2023-02-13T08:52:59.333Z,27.90
2023-02-13T08:55:27.258Z,24.40
2023-02-13T08:57:53.857Z,26.13
2023-02-13T09:00:20.924Z,23.23
2023-02-13T09:02:47.552Z,19.75
2023-02-13T09:05:14.284Z,20.08
2023-02-13T09:07:40.897Z,24.77
2023-02-13T09:10:07.802Z,20.52
2023-02-13T09:12:34.444Z,22.70
2023-02-13T09:15:01.264Z,18.88
2023-02-13T09:17:27.941Z,22.88
2023-02-13T09:19:54.522Z,24.27
2023-02-13T09:22:21.118Z,24.25
2023-02-13T09:24:47.642Z,20.65
2023-02-13T09:27:14.211Z,23.30
2023-02-13T09:29:40.801Z,22.45
2023-02-13T09:32:07.595Z,21.88
2023-02-13T09:34:34.353Z,21.10
2023-02-13T09:37:00.932Z,23.38
2023-02-13T09:39:27.512Z,20.02
2023-02-13T09:41:56.076Z,18.80
2023-02-13T09:44:44.797Z,18.90
2023-02-13T09:47:30.117Z,17.92
2023-02-13T09:50:06.556Z,20.25
2023-02-13T09:52:37.667Z,19.80
2023-02-13T09:55:15.742Z,16.33
2023-02-13T09:58:05.600Z,20.42
2023-02-13T10:00:40.447Z,16.43
2023-02-13T10:03:12.987Z,16.00
2023-02-13T10:06:06.916Z,15.82
2023-02-13T10:08:42.818Z,15.32
2023-02-13T10:11:26.983Z,14.27
2023-02-13T10:14:11.659Z,16.30
2023-02-13T10:16:42.569Z,17.30
2023-02-13T10:19:14.303Z,14.35
2023-02-13T10:21:50.817Z,16.50
2023-02-13T10:24:23.370Z,16.17
2023-02-13T10:26:49.998Z,15.90
2023-02-13T10:30:05.794Z,15.07
2023-02-13T10:32:43.168Z,14.52
2023-02-13T10:35:21.020Z,13.95
2023-02-13T10:37:51.710Z,15.02
2023-02-13T10:40:19.033Z,15.90
2023-02-13T10:42:53.889Z,14.15
2023-02-13T10:46:08.331Z,13.30
2023-02-13T10:48:59.955Z,13.68
2023-02-13T10:51:40.477Z,10.88
2023-02-13T10:54:28.828Z,13.48
2023-02-13T10:57:20.115Z,14.80
2023-02-13T11:00:17.988Z,13.30
2023-02-13T11:02:44.957Z,10.50
2023-02-13T11:05:39.670Z,12.70
2023-02-13T11:08:18.779Z,13.15
2023-02-13T11:10:45.352Z,17.60
2023-02-13T11:13:24.224Z,10.63
2023-02-13T11:16:06.461Z,10.05
2023-02-13T11:18:39.591Z,11.48
2023-02-13T11:21:14.745Z,10.32
2023-02-13T11:23:45.030Z,10.68
2023-02-13T11:26:32.743Z,10.27
2023-02-13T11:29:18.173Z,9.52
2023-02-13T11:31:44.920Z,12.23
2023-02-13T11:34:29.336Z,10.98
2023-02-13T11:37:15.151Z,9.95
2023-02-13T11:39:44.256Z,12.60
2023-02-13T11:42:14.580Z,9.20
2023-02-13T11:44:44.052Z,10.25
2023-02-13T11:47:10.881Z,9.90
2023-02-13T11:49:39.386Z,10.18
2023-02-13T11:52:11.080Z,9.48
2023-02-13T11:54:44.934Z,8.93
2023-02-13T11:57:35.241Z,9.82
2023-02-13T12:00:31.062Z,7.95
2023-02-13T12:02:58.527Z,7.68
2023-02-13T12:05:29.314Z,7.88
2023-02-13T12:08:00.430Z,7.50
2023-02-13T12:10:33.926Z,10.70
2023-02-13T12:13:24.352Z,9.25
2023-02-13T12:16:00.289Z,10.80
2023-02-13T12:18:36.841Z,8.50
2023-02-13T12:21:04.365Z,9.13
2023-02-13T12:23:49.137Z,8.88
2023-02-13T12:26:48.284Z,8.43
2023-02-13T12:29:23.080Z,8.98
2023-02-13T12:32:26.524Z,10.25
2023-02-13T12:35:29.401Z,9.95
2023-02-13T12:38:08.821Z,16.92
2023-02-13T12:40:58.450Z,10.57
2023-02-13T12:43:43.760Z,9.15
2023-02-13T12:46:29.836Z,9.73
2023-02-13T12:49:09.327Z,7.72
2023-02-13T12:52:08.106Z,9.27
2023-02-13T12:55:15.850Z,8.80
2023-02-13T12:58:20.893Z,9.10
2023-02-13T13:01:03.866Z,10.27
2023-02-13T13:03:52.049Z,9.70
2023-02-13T13:06:29.724Z,9.18
2023-02-13T13:09:25.056Z,8.85
2023-02-13T13:11:57.756Z,7.60
2023-02-13T13:14:32.861Z,8.60
2023-02-13T13:17:20.576Z,8.95
2023-02-13T13:20:29.916Z,7.18
2023-02-13T13:23:21.325Z,7.20
2023-02-13T13:25:58.039Z,7.35
2023-02-13T13:28:30.446Z,9.65
2023-02-13T13:30:58.879Z,7.20
2023-02-13T13:33:28.096Z,8.88
2023-02-13T13:36:27.299Z,7.15
2023-02-13T13:39:21.751Z,8.13
2023-02-13T13:42:02.396Z,8.60
2023-02-13T13:44:47.423Z,8.32
2023-02-13T13:47:37.391Z,8.93
2023-02-13T13:50:06.021Z,7.78
2023-02-13T13:52:37.456Z,10.30
2023-02-13T13:55:04.855Z,8.30
2023-02-13T13:57:40.448Z,8.32
2023-02-13T14:00:07.702Z,10.18
2023-02-13T14:03:11.104Z,8.38
2023-02-13T14:05:59.353Z,7.55
2023-02-13T14:08:57.117Z,10.55
2023-02-13T14:11:29.734Z,8.43
2023-02-13T14:13:56.409Z,7.55
2023-02-13T14:16:45.184Z,8.68
2023-02-13T14:19:33.164Z,8.20
2023-02-13T14:22:38.593Z,8.13
2023-02-13T14:25:07.265Z,8.68
2023-02-13T14:27:39.033Z,9.00
2023-02-13T14:30:25.770Z,9.10
2023-02-13T14:32:52.911Z,7.90
2023-02-13T14:35:27.330Z,8.93
2023-02-13T14:37:59.464Z,8.55
2023-02-13T14:40:42.309Z,10.10
2023-02-13T14:43:27.029Z,11.07
2023-02-13T14:45:58.088Z,10.88
2023-02-13T14:48:43.514Z,9.55
2023-02-13T14:51:28.476Z,9.88
2023-02-13T14:54:01.507Z,10.25
2023-02-13T14:56:29.630Z,10.23
2023-02-13T14:59:05.311Z,9.30
2023-02-13T15:01:34.983Z,11.02
2023-02-13T15:04:15.235Z,11.60
2023-02-13T15:06:45.634Z,11.55
2023-02-13T15:09:22.076Z,11.02
2023-02-13T15:11:48.946Z,15.77
2023-02-13T15:14:20.334Z,11.57
2023-02-13T15:16:51.725Z,9.68
2023-02-13T15:19:20.862Z,10.38
2023-02-13T15:22:00.148Z,11.05
2023-02-13T15:24:36.619Z,10.93
2023-02-13T15:27:05.963Z,12.40
2023-02-13T15:29:47.861Z,11.32
2023-02-13T15:32:25.901Z,12.65
2023-02-13T15:34:52.557Z,12.48
2023-02-13T15:37:24.978Z,14.48
2023-02-13T15:39:51.650Z,10.30
2023-02-13T15:42:18.507Z,11.52
2023-02-13T15:44:48.882Z,11.40
2023-02-13T15:47:26.435Z,12.27
2023-02-13T15:49:53.555Z,12.75
2023-02-13T15:52:32.199Z,11.75
2023-02-13T15:54:59.370Z,10.68
2023-02-13T15:57:27.341Z,15.48
2023-02-13T15:59:57.219Z,12.30
2023-02-13T16:02:31.744Z,12.43
2023-02-13T16:05:01.273Z,11.32
2023-02-13T16:07:27.901Z,12.45
2023-02-13T16:10:15.352Z,13.55
2023-02-13T16:12:48.866Z,13.32
2023-02-13T16:15:18.226Z,14.85
2023-02-13T16:17:46.844Z,17.95
2023-02-13T16:20:13.458Z,16.42
2023-02-13T16:22:47.171Z,14.18
2023-02-13T16:25:17.073Z,13.30
2023-02-13T16:27:48.659Z,12.45
2023-02-13T16:30:33.564Z,12.60
2023-02-13T16:33:15.360Z,14.40
2023-02-13T16:35:48.999Z,13.57
2023-02-13T16:38:29.399Z,13.32
2023-02-13T16:40:58.873Z,15.07
2023-02-13T16:43:45.199Z,14.27
2023-02-13T16:46:20.776Z,13.18
2023-02-13T16:48:56.599Z,15.40
2023-02-13T16:51:29.606Z,17.02
2023-02-13T16:53:58.522Z,16.80
2023-02-13T16:56:25.703Z,15.93
2023-02-13T16:59:05.350Z,14.23
2023-02-13T17:01:32.154Z,16.63
2023-02-13T17:03:58.807Z,14.98
2023-02-13T17:06:25.472Z,14.75
2023-02-13T17:08:52.827Z,15.73
2023-02-13T17:11:19.889Z,17.25
2023-02-13T17:13:46.451Z,14.70
2023-02-13T17:16:13.137Z,16.63
2023-02-13T17:18:39.732Z,18.10
2023-02-13T17:21:06.475Z,16.67
2023-02-13T17:23:33.133Z,14.68
2023-02-13T17:25:59.935Z,16.25
2023-02-13T17:28:29.392Z,17.02
2023-02-13T17:30:58.574Z,16.20
2023-02-13T17:33:25.372Z,18.80
2023-02-13T17:35:52.949Z,18.42
2023-02-13T17:38:20.118Z,17.42
2023-02-13T17:40:47.572Z,19.83
2023-02-13T17:43:16.699Z,19.15
2023-02-13T17:45:43.740Z,17.30
2023-02-13T17:48:10.349Z,17.23
2023-02-13T17:50:38.175Z,20.02
2023-02-13T17:53:08.467Z,19.08
2023-02-13T17:55:35.955Z,20.40
2023-02-13T17:58:02.849Z,20.30
2023-02-13T18:00:32.658Z,19.33
2023-02-13T18:03:00.951Z,19.57
2023-02-13T18:05:28.630Z,19.08
2023-02-13T18:07:55.560Z,18.88
2023-02-13T18:10:25.538Z,18.00
2023-02-13T18:12:53.832Z,18.95
2023-02-13T18:15:20.746Z,18.08
2023-02-13T18:17:48.016Z,24.65
2023-02-13T18:20:18.098Z,30.90
2023-02-13T18:22:44.857Z,22.02
2023-02-13T18:25:12.025Z,22.23
2023-02-13T18:27:39.101Z,24.48
2023-02-13T18:30:06.622Z,21.02
2023-02-13T18:32:33.714Z,20.90
2023-02-13T18:35:00.852Z,21.80
2023-02-13T18:37:29.425Z,20.17
2023-02-13T18:39:56.544Z,22.98
2023-02-13T18:42:23.231Z,20.25
2023-02-13T18:44:49.815Z,21.02
2023-02-13T18:47:17.367Z,23.52
2023-02-13T18:49:46.368Z,23.20
2023-02-13T18:52:12.956Z,21.85
2023-02-13T18:54:39.596Z,19.40
2023-02-13T18:57:06.685Z,22.67
2023-02-13T18:59:33.385Z,21.27
2023-02-13T19:02:01.249Z,21.15
2023-02-13T19:04:29.164Z,22.05
2023-02-13T19:06:55.866Z,23.90
2023-02-13T19:09:22.452Z,21.75
2023-02-13T19:11:49.049Z,20.60
2023-02-13T19:14:15.895Z,19.40
2023-02-13T19:16:42.927Z,21.38
2023-02-13T19:19:10.466Z,18.48
2023-02-13T19:21:38.494Z,19.48
2023-02-13T19:24:08.634Z,18.98
2023-02-13T19:26:35.965Z,18.00
2023-02-13T19:29:02.798Z,18.90
2023-02-13T19:31:31.497Z,17.45
2023-02-13T19:34:00.335Z,16.55
2023-02-13T19:36:28.935Z,20.45
2023-02-13T19:38:58.229Z,16.25
2023-02-13T19:41:25.798Z,18.73
2023-02-13T19:43:55.647Z,20.73
2023-02-13T19:46:28.196Z,16.70
2023-02-13T19:48:54.847Z,17.33
2023-02-13T19:51:24.450Z,18.55
2023-02-13T19:54:00.217Z,18.40
2023-02-13T19:56:28.030Z,19.98
2023-02-13T19:58:54.877Z,17.70
2023-02-13T20:01:24.377Z,16.00
2023-02-13T20:03:51.067Z,14.38
2023-02-13T20:06:24.627Z,16.33
2023-02-13T20:08:52.285Z,12.68
2023-02-13T20:11:20.706Z,11.85
2023-02-13T20:13:47.754Z,12.73
2023-02-13T20:16:16.613Z,12.15
2023-02-13T20:18:43.446Z,11.10
2023-02-13T20:21:13.221Z,10.35
2023-02-13T20:23:41.386Z,12.37
2023-02-13T20:26:13.879Z,11.38
2023-02-13T20:28:42.843Z,12.23
2023-02-13T20:31:11.083Z,12.55
2023-02-13T20:33:39.495Z,12.85
2023-02-13T20:36:10.321Z,13.55
2023-02-13T20:38:37.205Z,12.95
2023-02-13T20:41:08.820Z,12.98
2023-02-13T20:43:35.462Z,13.05
2023-02-13T20:46:02.092Z,13.98
2023-02-13T20:48:28.831Z,11.63
2023-02-13T20:51:02.596Z,11.75
2023-02-13T20:53:30.327Z,12.70
2023-02-13T20:56:10.657Z,14.25
2023-02-13T20:58:38.069Z,12.90
2023-02-13T21:01:12.486Z,12.50
2023-02-13T21:03:39.303Z,12.60
2023-02-13T21:06:06.454Z,11.82
2023-02-13T21:08:33.154Z,10.98
2023-02-13T21:11:04.892Z,11.70
2023-02-13T21:13:35.364Z,11.27
2023-02-13T21:16:16.813Z,9.05
2023-02-13T21:18:46.703Z,6.82
2023-02-13T21:21:13.441Z,6.13
2023-02-13T21:23:40.042Z,7.65
2023-02-13T21:26:13.146Z,10.85
2023-02-13T21:28:41.280Z,14.60
2023-02-13T21:31:11.797Z,17.92
2023-02-13T21:33:38.492Z,16.13
2023-02-13T21:36:07.933Z,15.40
2023-02-13T21:38:38.486Z,13.88
2023-02-13T21:41:08.068Z,12.10
2023-02-13T21:43:37.828Z,10.10
2023-02-13T21:46:12.956Z,10.90
2023-02-13T21:48:41.417Z,9.68
2023-02-13T21:51:12.816Z,8.20
2023-02-13T21:53:39.824Z,8.18
2023-02-13T21:56:10.453Z,8.20
2023-02-13T22:01:20.521Z,9.27
2023-02-13T22:03:52.874Z,7.78
2023-02-13T22:06:21.001Z,9.23
2023-02-13T22:08:48.526Z,10.07
2023-02-13T22:11:17.411Z,9.77
2023-02-13T22:13:44.061Z,9.63
2023-02-13T22:16:13.262Z,9.57
2023-02-13T22:18:45.220Z,9.93
2023-02-13T22:21:14.285Z,10.55
2023-02-13T22:23:42.713Z,9.27
2023-02-13T22:26:20.875Z,10.38
2023-02-13T22:28:49.003Z,9.48
2023-02-13T22:31:17.152Z,9.13
2023-02-13T22:33:47.594Z,9.52
2023-02-13T22:36:18.096Z,9.50
2023-02-13T22:38:44.986Z,9.07
2023-02-13T22:41:14.404Z,9.25
2023-02-13T22:43:41.813Z,10.85
2023-02-13T22:46:12.634Z,9.40
2023-02-13T22:48:40.450Z,9.68
2023-02-13T22:51:10.200Z,9.98
2023-02-13T22:53:38.151Z,10.07
2023-02-13T22:56:07.331Z,10.25
2023-02-13T22:58:34.428Z,10.00
2023-02-13T23:01:01.469Z,10.90
2023-02-13T23:03:31.157Z,9.48
2023-02-13T23:05:57.727Z,10.63
2023-02-13T23:08:24.289Z,9.18
2023-02-13T23:11:09.708Z,9.18
2023-02-13T23:13:36.267Z,11.02
2023-02-13T23:16:02.908Z,11.07
2023-02-13T23:18:29.468Z,10.05
2023-02-13T23:20:56.050Z,10.68
2023-02-13T23:23:24.103Z,9.93
2023-02-13T23:25:50.679Z,10.63
2023-02-13T23:28:17.303Z,11.82
2023-02-13T23:30:43.954Z,10.52
2023-02-13T23:33:10.586Z,10.60
2023-02-13T23:35:37.175Z,11.23
2023-02-13T23:38:03.694Z,11.05
2023-02-13T23:40:30.312Z,12.32
2023-02-13T23:42:57.095Z,11.10
2023-02-13T23:45:23.647Z,12.07
2023-02-13T23:47:50.249Z,10.75
2023-02-13T23:50:16.950Z,12.05
2023-02-13T23:52:43.540Z,14.93
2023-02-13T23:55:10.311Z,15.48
2023-02-13T23:57:36.876Z,16.00
